Time;durP1;ratioP1;P1;durP2;ratioP2;P2;SDS_P1;SDS_P2;PMS_P1;PMS_P2;Temp;Humidity;BMP_temperature;BMP_pressure;BME280_temperature;BME280_humidity;BME280_pressure;Samples;Min_cycle;Max_cycle;Signal;HPM_P1;HPM_P2
2022/02/08 00:01:24;;;;;;;5.40;2.40;;;;;;;0.45;99.44;151486.44;5106615;28;20452;-76
2022/02/08 00:03:59;;;;;;;8.70;3.60;;;;;;;0.42;99.49;151478.78;5085358;28;20799;-75
2022/02/08 00:06:42;;;;;;;3.67;2.50;;;;;;;0.54;98.11;151508.28;5103220;27;20459;-76
2022/02/08 00:09:19;;;;;;;4.90;3.43;;;;;;;0.44;98.00;151483.91;5109053;28;20454;-75
2022/02/08 00:11:55;;;;;;;4.50;2.60;;;;;;;0.49;97.33;151496.75;5104696;28;20775;-76
2022/02/08 00:14:31;;;;;;;4.87;2.70;;;;;;;0.42;98.91;151477.50;5103223;28;20892;-76
2022/02/08 00:17:06;;;;;;;3.70;1.97;;;;;;;0.41;98.35;151474.91;5108163;27;20452;-76
2022/02/08 00:19:42;;;;;;;6.90;3.60;;;;;;;0.37;98.71;151464.66;5107545;27;20440;-76
2022/02/08 00:22:19;;;;;;;4.23;3.23;;;;;;;0.36;100.00;151463.38;5107310;27;20456;-75
2022/02/08 00:24:55;;;;;;;5.50;3.20;;;;;;;0.37;100.00;151464.66;5082011;28;20468;-76
2022/02/08 00:27:30;;;;;;;8.00;2.97;;;;;;;0.35;100.00;151459.50;5105372;27;20457;-75
2022/02/08 00:30:07;;;;;;;4.20;2.63;;;;;;;0.33;100.00;151454.38;5086375;28;20829;-76
2022/02/08 00:32:43;;;;;;;5.10;3.13;;;;;;;0.33;100.00;151454.38;5104047;28;20986;-76
2022/02/08 00:35:19;;;;;;;4.60;2.97;;;;;;;0.40;100.00;151473.63;5091200;28;20495;-76
2022/02/08 00:37:56;;;;;;;3.10;2.43;;;;;;;0.41;100.00;151474.91;5064623;28;20465;-76
2022/02/08 00:40:32;;;;;;;3.40;3.10;;;;;;;0.45;100.00;151485.22;5064530;28;20461;-75
2022/02/08 00:43:09;;;;;;;5.33;3.50;;;;;;;0.50;100.00;151498.03;5062057;28;20513;-75
2022/02/08 00:45:52;;;;;;;3.43;2.80;;;;;;;0.51;100.00;151500.56;5084483;28;20925;-75
2022/02/08 00:48:31;;;;;;;3.67;2.93;;;;;;;0.54;100.00;151509.59;5068264;28;20799;-75
2022/02/08 00:51:07;;;;;;;3.33;2.67;;;;;;;0.56;100.00;151513.41;5088270;28;20456;-76
2022/02/08 00:53:44;;;;;;;6.77;3.07;;;;;;;0.58;100.00;151518.59;5082451;28;20480;-76
2022/02/08 00:56:20;;;;;;;6.20;2.83;;;;;;;0.60;100.00;151523.72;5063783;28;20453;-76
2022/02/08 00:58:56;;;;;;;6.13;2.60;;;;;;;0.60;100.00;151523.72;5069775;28;20926;-76
2022/02/08 01:01:35;;;;;;;3.47;2.70;;;;;;;0.64;100.00;151532.72;5061783;28;20457;-75
2022/02/08 01:04:11;;;;;;;5.63;2.70;;;;;;;0.65;100.00;151535.25;5085530;28;20966;-75
2022/02/08 01:06:47;;;;;;;2.83;2.37;;;;;;;0.66;100.00;151537.84;5062737;28;20455;-76
2022/02/08 01:09:36;;;;;;;5.43;2.57;;;;;;;0.69;100.00;151546.78;5081058;28;20459;-75
2022/02/08 01:12:15;;;;;;;5.43;2.30;;;;;;;0.68;100.00;151542.97;5083288;28;20797;-76
2022/02/08 01:14:52;;;;;;;5.07;2.10;;;;;;;0.70;100.00;151549.38;5084621;28;20457;-75
2022/02/08 01:17:28;;;;;;;4.40;2.40;;;;;;;0.75;100.00;151562.22;5085946;28;20472;-75
2022/02/08 01:20:09;;;;;;;3.83;2.30;;;;;;;0.74;100.00;151559.66;5087167;28;20448;-76
2022/02/08 01:22:45;;;;;;;4.10;2.10;;;;;;;0.72;100.00;151554.50;5099083;28;20448;-75
2022/02/08 01:25:29;;;;;;;3.23;2.33;;;;;;;0.77;100.00;151566.09;5066602;28;20448;-76
2022/02/08 01:28:14;;;;;;;3.83;2.00;;;;;;;0.73;100.00;151557.09;5099189;28;20973;-75
2022/02/08 01:30:59;;;;;;;4.97;1.87;;;;;;;0.71;99.72;151550.66;5066629;28;20433;-76
2022/02/08 01:33:53;;;;;;;5.20;2.40;;;;;;;0.74;100.00;151558.38;5075118;28;20480;-76
2022/02/08 01:36:50;;;;;;;3.63;2.13;;;;;;;0.75;100.00;151562.22;5083121;28;20522;-75
2022/02/08 01:39:30;;;;;;;3.80;2.23;;;;;;;0.72;100.00;151554.50;5079568;28;20463;-76
2022/02/08 01:42:28;;;;;;;5.70;2.40;;;;;;;0.71;100.00;151551.97;5086749;28;20562;-75
2022/02/08 01:45:23;;;;;;;6.00;2.50;;;;;;;0.69;100.00;151546.78;5085355;28;20444;-76
2022/02/08 01:48:07;;;;;;;2.67;2.23;;;;;;;0.69;100.00;151546.78;5083018;28;20460;-75
2022/02/08 01:50:44;;;;;;;3.63;2.43;;;;;;;0.72;100.00;151553.22;5095237;28;20443;-75
2022/02/08 01:53:20;;;;;;;4.73;2.30;;;;;;;0.73;100.00;151555.78;5112249;28;20440;-75
2022/02/08 01:55:56;;;;;;;2.80;1.90;;;;;;;0.74;100.00;151559.66;5114150;28;20454;-76
2022/02/08 01:58:34;;;;;;;3.87;2.60;;;;;;;0.75;100.00;151562.22;5090677;28;20467;-75
2022/02/08 02:01:20;;;;;;;4.40;2.20;;;;;;;0.80;100.00;151573.75;5101336;28;20799;-76
2022/02/08 02:03:56;;;;;;;4.80;2.23;;;;;;;0.76;100.00;151564.81;5089201;28;20452;-76
2022/02/08 02:06:31;;;;;;;3.63;2.43;;;;;;;0.81;100.00;151576.34;5084253;28;20459;-75
2022/02/08 02:09:09;;;;;;;3.43;1.90;;;;;;;0.82;100.00;151580.16;5096797;28;20458;-76
2022/02/08 02:11:45;;;;;;;2.80;1.77;;;;;;;0.83;100.00;151582.75;5106413;28;20447;-76
2022/02/08 02:14:22;;;;;;;6.27;1.90;;;;;;;0.86;100.00;151589.19;5104522;28;20957;-75
2022/02/08 02:16:59;;;;;;;5.97;2.60;;;;;;;0.87;100.00;151593.06;5088370;28;20476;-75
2022/02/08 02:19:35;;;;;;;5.87;1.93;;;;;;;0.90;100.00;151600.72;5109717;28;20440;-75
2022/02/08 02:22:11;;;;;;;4.07;1.87;;;;;;;0.89;98.81;151598.19;5093667;28;20450;-75
2022/02/08 02:24:48;;;;;;;5.40;2.10;;;;;;;0.90;100.00;151600.72;5089447;27;20478;-76
2022/02/08 02:27:24;;;;;;;5.13;2.10;;;;;;;0.89;99.64;151598.19;5092007;28;20482;-76
2022/02/08 02:30:00;;;;;;;5.47;2.20;;;;;;;0.93;100.00;151608.44;5094134;28;20458;-75
2022/02/08 02:32:39;;;;;;;2.20;1.60;;;;;;;0.95;100.00;151612.31;5089697;28;20443;-75
2022/02/08 02:35:15;;;;;;;2.70;1.93;;;;;;;0.89;100.00;151598.19;5093610;28;20496;-76
2022/02/08 02:37:50;;;;;;;3.73;1.63;;;;;;;0.93;100.00;151608.44;5108885;27;20447;-75
2022/02/08 02:40:30;;;;;;;6.10;2.23;;;;;;;0.90;100.00;151599.47;5087817;28;20451;-76
2022/02/08 02:43:08;;;;;;;6.73;2.00;;;;;;;0.92;100.00;151605.91;5106781;28;20448;-75
2022/02/08 02:45:44;;;;;;;2.70;1.93;;;;;;;0.93;99.52;151607.13;5088228;28;20897;-76
2022/02/08 02:48:20;;;;;;;5.27;2.07;;;;;;;0.99;99.80;151622.56;5094411;28;20485;-76
2022/02/08 02:51:01;;;;;;;3.10;1.70;;;;;;;0.99;99.79;151623.84;5106173;27;20451;-76
2022/02/08 02:53:43;;;;;;;3.37;1.73;;;;;;;1.03;99.63;151634.09;5090510;28;20474;-76
2022/02/08 02:56:27;;;;;;;3.57;1.63;;;;;;;1.05;99.13;151639.28;5090512;28;20444;-75
2022/02/08 02:59:04;;;;;;;3.80;2.30;;;;;;;1.06;100.00;151641.81;5091790;28;20443;-75
2022/02/08 03:01:59;;;;;;;4.17;2.27;;;;;;;1.04;99.60;151636.69;5093521;28;20609;-76
2022/02/08 03:04:45;;;;;;;4.90;2.13;;;;;;;1.05;99.76;151639.28;5109063;27;20476;-75
2022/02/08 03:18:57;;;;;;;5.30;2.30;;;;;;;1.16;99.94;151667.56;5088400;27;20493;-75
2022/02/08 03:21:33;;;;;;;3.30;1.70;;;;;;;1.16;100.00;151666.25;5089770;28;20829;-76
2022/02/08 03:24:09;;;;;;;6.30;1.70;;;;;;;1.15;99.72;151664.97;5085778;28;20582;-76
2022/02/08 03:26:44;;;;;;;3.63;1.90;;;;;;;1.20;98.74;151677.81;5098080;28;20468;-75
2022/02/08 03:29:22;;;;;;;3.73;2.00;;;;;;;1.20;100.00;151677.81;5085270;28;20453;-75
2022/02/08 03:31:58;;;;;;;2.87;2.03;;;;;;;1.28;98.86;151695.78;5091809;28;20464;-77
2022/02/08 03:34:33;;;;;;;3.10;1.60;;;;;;;1.26;97.81;151690.66;5086268;28;20571;-76
2022/02/08 03:37:10;;;;;;;3.37;1.90;;;;;;;1.26;97.06;151690.66;5089471;28;20451;-75
2022/02/08 03:39:54;;;;;;;3.90;2.00;;;;;;;1.31;96.85;151703.50;5107196;28;20444;-75
2022/02/08 03:42:38;;;;;;;6.80;2.00;;;;;;;1.32;97.51;151706.06;5085820;28;20822;-75
2022/02/08 03:45:34;;;;;;;2.43;1.60;;;;;;;1.35;97.22;151713.78;5086002;28;20457;-76
2022/02/08 03:48:13;;;;;;;8.83;1.87;;;;;;;1.35;96.68;151713.78;5085341;28;20469;-76
2022/02/08 03:50:53;;;;;;;3.43;1.80;;;;;;;1.31;98.90;151703.50;5083510;28;20556;-76
2022/02/08 03:53:29;;;;;;;3.90;1.80;;;;;;;1.28;97.99;151695.78;5081477;28;20449;-75
2022/02/08 03:56:06;;;;;;;3.00;2.10;;;;;;;1.30;98.11;151700.94;5085305;28;20439;-75
2022/02/08 03:58:42;;;;;;;4.80;1.87;;;;;;;1.27;97.50;151693.22;5103219;28;20811;-75
2022/02/08 04:07:14;;;;;;;4.60;2.70;;;;;;;1.24;98.74;151688.06;5097127;28;20499;-76
2022/02/08 04:09:52;;;;;;;4.43;1.60;;;;;;;1.27;97.91;151693.22;5102747;28;20452;-75
2022/02/08 04:12:37;;;;;;;3.90;2.10;;;;;;;1.27;97.50;151693.22;5099520;28;20429;-76
2022/02/08 04:15:41;;;;;;;5.40;2.27;;;;;;;1.27;97.88;151694.53;5097961;27;20506;-75
2022/02/08 04:33:11;;;;;;;3.67;1.90;;;;;;;1.36;97.81;151716.31;5107063;28;20433;-76
2022/02/08 04:36:07;;;;;;;4.03;2.20;;;;;;;1.37;96.33;151718.91;5094838;28;20461;-76
2022/02/08 04:38:52;;;;;;;4.50;2.10;;;;;;;1.37;96.02;151718.91;5106951;27;20452;-75
2022/02/08 04:41:35;;;;;;;6.47;1.77;;;;;;;1.43;97.56;151734.34;5097092;28;20448;-76
2022/02/08 04:44:20;;;;;;;3.27;1.60;;;;;;;1.43;95.94;151734.34;5104926;28;20456;-75
2022/02/08 04:47:05;;;;;;;2.67;1.50;;;;;;;1.40;97.57;151726.63;5102842;27;20467;-75
2022/02/08 04:49:42;;;;;;;3.07;2.30;;;;;;;1.41;97.22;151729.16;5106368;28;20453;-75
2022/02/08 04:52:20;;;;;;;3.90;2.00;;;;;;;1.41;96.60;151730.47;5096971;28;20451;-75
2022/02/08 04:55:08;;;;;;;3.20;1.63;;;;;;;1.38;97.21;151722.75;5104487;28;20445;-75
2022/02/08 04:57:49;;;;;;;2.33;1.63;;;;;;;1.39;97.58;151724.03;5102985;28;20444;-75
2022/02/08 05:00:31;;;;;;;3.10;2.43;;;;;;;1.42;96.88;151731.75;5103983;28;20470;-74
2022/02/08 05:41:12;;;;;;;6.10;2.10;;;;;;;1.56;94.41;151769.00;5058246;28;20456;-76
2022/02/08 05:43:47;;;;;;;4.67;2.23;;;;;;;1.56;95.54;151767.75;5057549;28;20478;-75
2022/02/08 05:46:49;;;;;;;4.10;1.40;;;;;;;1.56;96.04;151769.00;5059274;28;20452;-75
2022/02/08 05:49:39;;;;;;;4.80;1.30;;;;;;;1.63;94.10;151785.72;5080163;28;20454;-76
2022/02/08 05:55:11;;;;;;;3.50;1.50;;;;;;;1.63;95.14;151785.72;5062914;28;20513;-76
2022/02/08 05:57:46;;;;;;;3.30;2.03;;;;;;;1.62;95.54;151784.44;5062962;28;20441;-75
2022/02/08 06:00:26;;;;;;;3.23;1.73;;;;;;;1.65;94.27;151790.84;5097250;28;20443;-76
2022/02/08 06:03:12;;;;;;;4.20;2.07;;;;;;;1.67;94.01;151795.97;5049174;28;20993;-76
2022/02/08 06:05:57;;;;;;;4.30;2.23;;;;;;;1.68;95.04;151798.56;5063820;28;20453;-76
2022/02/08 06:08:32;;;;;;;3.93;1.73;;;;;;;1.72;94.85;151808.88;5064223;28;20520;-75
2022/02/08 06:11:15;;;;;;;3.00;1.63;;;;;;;1.71;94.83;151807.59;5053869;28;20447;-75
2022/02/08 06:13:52;;;;;;;5.80;2.10;;;;;;;1.75;95.82;151816.56;5090350;28;20887;-75
2022/02/08 06:16:32;;;;;;;3.40;1.60;;;;;;;1.76;94.76;151820.44;5080052;28;20470;-76
2022/02/08 06:19:07;;;;;;;6.13;2.20;;;;;;;1.75;97.39;151816.56;5094497;28;20439;-76
2022/02/08 06:21:43;;;;;;;2.47;1.80;;;;;;;1.77;95.71;151821.72;5081574;28;20447;-75
2022/02/08 06:24:19;;;;;;;4.87;1.73;;;;;;;1.69;96.46;151802.47;5080702;28;20427;-76
2022/02/08 06:26:56;;;;;;;4.43;2.17;;;;;;;1.76;95.33;151820.44;5062249;28;20451;-76
2022/02/08 06:29:32;;;;;;;2.53;1.70;;;;;;;1.74;97.08;151814.00;5063594;28;20447;-76
2022/02/08 06:32:08;;;;;;;3.10;2.17;;;;;;;1.74;95.30;151814.00;5094860;28;20815;-76
2022/02/08 06:34:44;;;;;;;16.73;2.27;;;;;;;1.80;95.43;151829.44;5049373;28;20442;-76
2022/02/08 06:37:21;;;;;;;7.23;2.00;;;;;;;1.82;95.05;151834.56;5090634;28;20474;-76
2022/02/08 06:39:57;;;;;;;4.23;1.90;;;;;;;1.82;95.79;151835.88;5060234;28;20489;-76
2022/02/08 06:42:34;;;;;;;5.67;1.77;;;;;;;1.89;95.78;151851.25;5060917;28;20800;-76
2022/02/08 06:45:10;;;;;;;3.50;1.63;;;;;;;1.87;96.16;151847.41;5061658;28;20442;-76
2022/02/08 06:47:50;;;;;;;3.63;2.60;;;;;;;1.91;95.36;151856.44;5056631;28;20448;-76
2022/02/08 06:50:26;;;;;;;4.23;2.30;;;;;;;1.91;94.15;151857.69;5081137;28;20440;-76
2022/02/08 06:53:01;;;;;;;4.00;1.70;;;;;;;1.93;94.84;151862.88;5050553;28;20522;-76
2022/02/08 06:55:37;;;;;;;2.23;1.70;;;;;;;1.95;94.92;151868.00;5043762;28;20454;-77
2022/02/08 06:58:15;;;;;;;4.73;2.13;;;;;;;1.90;94.10;151855.16;5051007;28;20519;-76
2022/02/08 07:00:51;;;;;;;4.70;2.97;;;;;;;1.97;93.69;151873.13;5029269;28;20459;-76
2022/02/08 07:03:27;;;;;;;3.23;1.70;;;;;;;1.96;92.34;151870.53;5049856;28;20444;-76
2022/02/08 07:06:06;;;;;;;5.53;3.03;;;;;;;1.97;95.49;151871.81;5047820;28;20546;-85
2022/02/08 07:08:41;;;;;;;3.77;2.20;;;;;;;2.00;93.99;151880.84;5031399;28;20447;-76
2022/02/08 07:11:17;;;;;;;3.13;1.47;;;;;;;2.05;94.94;151893.69;5078671;28;20447;-76
2022/02/08 07:13:54;;;;;;;5.43;1.87;;;;;;;2.04;95.53;151891.09;5073537;28;20456;-76
2022/02/08 07:16:29;;;;;;;6.53;1.93;;;;;;;2.06;94.16;151896.28;5067045;28;20469;-76
2022/02/08 07:19:05;;;;;;;2.50;1.73;;;;;;;2.07;94.97;151898.81;5038019;28;20496;-76
2022/02/08 07:21:41;;;;;;;3.07;1.87;;;;;;;2.17;93.39;151924.53;5039246;28;20466;-76
2022/02/08 07:24:18;;;;;;;4.33;1.80;;;;;;;2.23;92.06;151939.97;5074257;28;20450;-76
2022/02/08 07:26:55;;;;;;;5.50;2.13;;;;;;;2.26;91.76;151947.69;5031925;28;20456;-76
2022/02/08 07:29:38;;;;;;;3.90;1.50;;;;;;;2.25;92.16;151945.09;5064593;28;20831;-76
2022/02/08 07:32:13;;;;;;;5.63;1.60;;;;;;;2.24;94.20;151941.25;5079421;28;20445;-76
2022/02/08 07:34:58;;;;;;;3.20;1.83;;;;;;;2.26;92.99;151946.41;5033970;28;20450;-76
2022/02/08 07:37:45;;;;;;;3.23;1.50;;;;;;;2.35;91.80;151970.84;5038875;28;20498;-76
2022/02/08 07:41:35;;;;;;;4.60;1.50;;;;;;;2.34;93.27;151968.25;5064857;28;20439;-76
2022/02/08 07:43:26;;;;;;;3.70;1.70;;;;;;;2.33;93.97;151965.66;5045693;28;20451;-76
2022/02/08 07:46:20;;;;;;;5.30;1.70;;;;;;;2.43;92.88;151990.13;5043690;28;20779;-77
2022/02/08 07:48:56;;;;;;;3.43;1.67;;;;;;;2.47;92.93;152001.69;5046993;28;20519;-76
2022/02/08 07:51:33;;;;;;;3.30;1.80;;;;;;;2.53;93.37;152014.56;5047104;28;20464;-77
2022/02/08 07:54:09;;;;;;;6.57;2.33;;;;;;;2.55;90.91;152019.69;5078323;28;20437;-76
2022/02/08 07:56:45;;;;;;;3.77;1.47;;;;;;;2.60;90.83;152032.53;5029477;28;20801;-76
2022/02/08 07:59:20;;;;;;;4.30;1.83;;;;;;;2.63;91.73;152040.25;5046227;28;20436;-77
2022/02/08 08:01:57;;;;;;;3.70;1.70;;;;;;;2.62;91.93;152038.97;5043864;28;20459;-84
2022/02/08 08:04:34;;;;;;;7.30;2.00;;;;;;;2.65;92.65;152046.69;5062643;28;20941;-77
2022/02/08 08:07:10;;;;;;;6.57;1.57;;;;;;;2.68;92.96;152054.41;5076481;28;20548;-77
2022/02/08 08:09:45;;;;;;;3.37;2.00;;;;;;;2.62;93.49;152038.97;5046201;28;20440;-77
2022/02/08 08:12:22;;;;;;;3.83;1.83;;;;;;;2.65;92.98;152045.44;5045693;28;20457;-77
2022/02/08 08:15:02;;;;;;;4.30;1.63;;;;;;;2.69;92.80;152055.72;5041654;28;20457;-77
2022/02/08 08:17:55;;;;;;;2.90;1.70;;;;;;;2.78;91.92;152078.88;5054727;28;20471;-77
2022/02/08 08:20:30;;;;;;;4.80;2.00;;;;;;;2.80;92.64;152084.03;5050321;28;20437;-77
2022/02/08 08:23:06;;;;;;;2.80;1.43;;;;;;;2.85;91.46;152096.88;5047835;28;20450;-77
2022/02/08 08:25:41;;;;;;;3.50;1.60;;;;;;;2.91;92.27;152112.34;5077896;28;20456;-77
2022/02/08 08:28:17;;;;;;;3.80;1.43;;;;;;;2.94;91.81;152120.00;5046699;28;20445;-77
2022/02/08 08:30:52;;;;;;;5.33;1.47;;;;;;;3.01;91.58;152138.06;5047241;28;20446;-77
2022/02/08 08:33:29;;;;;;;3.30;2.00;;;;;;;3.10;90.17;152161.19;5046738;28;20457;-77
2022/02/08 08:36:06;;;;;;;3.57;1.93;;;;;;;3.14;90.69;152171.50;5030725;28;20560;-77
2022/02/08 08:38:41;;;;;;;6.40;1.70;;;;;;;3.22;90.61;152190.81;5032793;28;20469;-78
2022/02/08 08:41:27;;;;;;;3.33;1.53;;;;;;;3.26;90.66;152202.38;5075956;28;20799;-77
2022/02/08 08:50:07;;;;;;;3.00;1.97;;;;;;;3.57;86.73;152282.16;5030222;28;20479;-77
2022/02/08 08:52:45;;;;;;;5.57;2.20;;;;;;;3.58;88.97;152283.47;5047567;28;20545;-77
2022/02/08 08:55:21;;;;;;;5.40;1.60;;;;;;;3.58;88.01;152284.75;5047187;28;20453;-76
2022/02/08 08:57:57;;;;;;;4.90;2.13;;;;;;;3.60;88.19;152289.88;5046262;28;20464;-76
2022/02/08 09:00:32;;;;;;;2.93;1.57;;;;;;;3.57;87.75;152280.91;5058347;28;20449;-76
2022/02/08 09:03:08;;;;;;;6.83;1.90;;;;;;;3.63;86.98;152297.63;5045406;28;20507;-76
2022/02/08 09:05:45;;;;;;;4.73;1.77;;;;;;;3.67;87.45;152307.94;5072772;28;20455;-77
2022/02/08 09:08:22;;;;;;;5.00;2.27;;;;;;;3.67;87.96;152307.94;5027425;28;20544;-76
2022/02/08 09:11:06;;;;;;;5.97;2.00;;;;;;;3.69;86.92;152313.09;5032457;28;20806;-76
2022/02/08 09:13:48;;;;;;;5.47;1.53;;;;;;;3.82;85.25;152345.25;5028200;28;20971;-76
2022/02/08 09:16:32;;;;;;;3.80;2.10;;;;;;;3.85;85.59;152351.69;5046102;28;20458;-76
2022/02/08 09:22:26;;;;;;;4.33;1.50;;;;;;;3.96;86.12;152381.31;5022368;28;20934;-76
2022/02/08 09:25:17;;;;;;;3.73;1.70;;;;;;;4.02;86.11;152395.50;5046703;28;20454;-76
2022/02/08 09:28:02;;;;;;;5.33;1.80;;;;;;;4.16;84.36;152431.53;5056823;28;20434;-77
2022/02/08 09:30:41;;;;;;;3.50;1.60;;;;;;;4.15;85.59;152428.97;5027250;28;20478;-77
2022/02/08 09:33:17;;;;;;;3.00;1.57;;;;;;;4.17;87.30;152435.41;5047268;28;20446;-77
2022/02/08 09:35:53;;;;;;;6.90;2.13;;;;;;;4.27;85.33;152461.16;5030444;28;20493;-77
2022/02/08 09:38:31;;;;;;;5.63;1.80;;;;;;;4.35;84.71;152480.47;5018701;28;20470;-77
2022/02/08 09:41:08;;;;;;;5.13;1.80;;;;;;;4.43;84.33;152501.09;5030159;28;20458;-77
2022/02/08 09:43:44;;;;;;;2.13;1.70;;;;;;;4.46;84.88;152508.81;5061417;28;20472;-77
2022/02/08 09:46:19;;;;;;;3.43;1.87;;;;;;;4.42;83.61;152498.50;5039910;28;20479;-77
2022/02/08 09:48:57;;;;;;;3.97;1.50;;;;;;;4.38;83.93;152488.22;5038015;28;20816;-77
2022/02/08 09:51:34;;;;;;;4.90;2.00;;;;;;;4.31;85.78;152470.19;5060340;28;20946;-77
2022/02/08 09:54:11;;;;;;;3.87;1.50;;;;;;;4.45;84.96;152504.97;5024874;28;20454;-77
2022/02/08 09:56:47;;;;;;;4.80;1.87;;;;;;;4.55;83.56;152532.03;5078139;28;21015;-77
2022/02/08 09:59:22;;;;;;;6.33;2.10;;;;;;;4.63;83.14;152552.59;5031809;28;20439;-77
2022/02/08 10:01:58;;;;;;;6.20;1.63;;;;;;;4.73;84.24;152578.41;5027025;28;20459;-77
2022/02/08 10:04:34;;;;;;;2.10;1.60;;;;;;;4.75;83.34;152583.56;5030325;28;20458;-77
2022/02/08 10:07:11;;;;;;;3.93;1.57;;;;;;;4.80;84.16;152595.13;5028705;28;20787;-77
2022/02/08 10:09:48;;;;;;;3.00;1.60;;;;;;;4.84;82.57;152606.72;5029247;28;20815;-77
2022/02/08 10:12:30;;;;;;;4.20;1.60;;;;;;;4.83;84.90;152602.88;5026354;28;20454;-77
2022/02/08 10:24:00;;;;;;;6.60;2.10;;;;;;;5.12;81.94;152677.63;5047076;28;20797;-77
2022/02/08 10:26:42;;;;;;;4.40;1.23;;;;;;;5.27;81.77;152715.03;5079735;28;20484;-77
2022/02/08 10:29:25;;;;;;;3.43;1.67;;;;;;;5.36;82.75;152739.50;5052201;28;20439;-77
2022/02/08 10:32:18;;;;;;;4.00;2.00;;;;;;;5.54;82.21;152784.63;5063402;28;20665;-77
2022/02/08 10:37:59;;;;;;;4.00;1.47;;;;;;;5.55;83.08;152787.22;5064023;28;20463;-77
2022/02/08 10:40:38;;;;;;;6.07;2.07;;;;;;;5.67;81.70;152818.16;5065137;28;20443;-77
2022/02/08 10:43:17;;;;;;;7.60;1.93;;;;;;;5.80;80.23;152851.66;5080232;28;20474;-77
2022/02/08 10:45:52;;;;;;;2.80;1.93;;;;;;;5.83;80.12;152859.41;5062421;28;20517;-78
2022/02/08 10:48:30;;;;;;;2.40;1.13;;;;;;;5.84;81.15;152862.00;5063707;28;20444;-77
2022/02/08 10:51:06;;;;;;;3.67;1.77;;;;;;;5.95;80.30;152890.44;5033773;28;20450;-77
2022/02/08 10:53:54;;;;;;;2.90;1.60;;;;;;;5.95;80.46;152889.16;5079626;28;20497;-76
2022/02/08 10:56:33;;;;;;;6.07;1.80;;;;;;;6.02;81.19;152907.19;5077324;28;20454;-77
2022/02/08 10:59:17;;;;;;;2.70;1.00;;;;;;;5.97;82.00;152895.59;5078251;28;20558;-77
2022/02/08 11:02:01;;;;;;;5.40;1.33;;;;;;;6.09;80.77;152926.53;5080909;28;20450;-77
2022/02/08 11:04:48;;;;;;;3.40;1.20;;;;;;;6.10;82.07;152927.84;5048236;28;20454;-77
2022/02/08 11:08:00;;;;;;;3.33;1.53;;;;;;;6.16;81.84;152942.03;5061980;28;20669;-76
2022/02/08 11:10:55;;;;;;;5.83;1.63;;;;;;;6.19;81.29;152951.06;5049567;28;20450;-77
2022/02/08 11:13:48;;;;;;;3.40;1.43;;;;;;;6.16;80.41;152943.31;5075015;28;20535;-76
2022/02/08 11:16:29;;;;;;;2.53;1.63;;;;;;;6.19;80.79;152949.78;5062699;28;20455;-77
2022/02/08 11:19:24;;;;;;;3.37;1.30;;;;;;;6.25;81.68;152966.53;5048411;28;20466;-77
2022/02/08 11:22:06;;;;;;;3.90;1.50;;;;;;;6.27;81.65;152971.72;5047440;28;20529;-77
2022/02/08 11:24:46;;;;;;;4.33;1.83;;;;;;;6.53;80.40;153037.50;5032711;28;20480;-77
2022/02/08 11:27:21;;;;;;;1.77;1.30;;;;;;;6.75;80.54;153095.56;5061778;28;20474;-77
2022/02/08 11:30:02;;;;;;;3.43;1.73;;;;;;;6.71;82.74;153083.97;5030594;28;20471;-78
2022/02/08 11:33:01;;;;;;;3.40;1.60;;;;;;;6.85;81.29;153118.81;5031994;28;20458;-78
2022/02/08 11:44:42;;;;;;;2.17;1.50;;;;;;;7.10;82.77;153184.66;5059549;28;20452;-78
2022/02/08 11:47:29;;;;;;;3.83;1.13;;;;;;;7.03;83.70;153166.59;5062088;28;20934;-78
2022/02/08 11:50:36;;;;;;;6.07;1.80;;;;;;;7.13;83.47;153192.41;5063583;28;20876;-78
2022/02/08 11:53:23;;;;;;;5.03;1.83;;;;;;;7.23;84.93;153218.22;5056930;28;20440;-78
2022/02/08 11:59:21;;;;;;;3.60;1.57;;;;;;;7.46;83.03;153275.06;5078093;28;21061;-77
2022/02/08 12:02:40;;;;;;;6.73;1.60;;;;;;;7.46;84.05;153275.06;5078061;28;20435;-78
2022/02/08 12:05:25;;;;;;;8.57;1.57;;;;;;;7.45;86.04;153272.47;5046895;28;20455;-78
2022/02/08 12:08:03;;;;;;;2.23;1.13;;;;;;;7.59;85.64;153308.63;5077815;28;20443;-78
2022/02/08 12:10:44;;;;;;;1.50;1.10;;;;;;;7.68;85.51;153331.84;5080832;28;20447;-78
2022/02/08 12:13:47;;;;;;;2.47;1.30;;;;;;;7.79;85.59;153360.28;5047770;28;20435;-78
2022/02/08 12:34:27;;;;;;;4.80;1.30;;;;;;;7.97;87.39;153406.78;5013822;28;20435;-78
2022/02/08 12:55:33;;;;;;;1.63;0.70;;;;;;;8.40;87.78;153518.00;5029452;28;20447;-78
2022/02/08 12:58:30;;;;;;;1.40;0.67;;;;;;;8.33;88.25;153499.91;5074467;28;20470;-78
2022/02/08 13:04:16;;;;;;;1.30;0.73;;;;;;;8.40;87.39;153518.00;5027030;28;20522;-78
2022/02/08 13:19:29;;;;;;;3.33;1.40;;;;;;;8.29;90.02;153489.56;5057447;28;20462;-77
2022/02/08 13:32:15;;;;;;;1.83;0.77;;;;;;;8.38;88.12;153512.84;5078481;28;20450;-77
2022/02/08 14:03:04;;;;;;;2.80;1.30;;;;;;;8.24;90.36;153475.28;5065776;28;20450;-77
2022/02/08 14:05:58;;;;;;;2.87;1.23;;;;;;;8.27;89.16;153483.09;5035383;28;20545;-77
2022/02/08 14:08:44;;;;;;;2.33;1.10;;;;;;;8.31;89.84;153493.47;5034499;28;20584;-77
2022/02/08 14:11:48;;;;;;;2.07;1.27;;;;;;;8.34;88.42;153502.47;5062408;28;20446;-77
2022/02/08 14:14:46;;;;;;;2.60;1.10;;;;;;;8.33;89.40;153499.91;5050657;28;20771;-78
2022/02/08 14:20:42;;;;;;;2.67;0.90;;;;;;;8.34;88.96;153502.47;5076077;28;20887;-78
2022/02/08 14:32:03;;;;;;;2.83;1.40;;;;;;;8.20;91.44;153466.28;5041270;28;20474;-77
2022/02/08 14:35:05;;;;;;;3.50;1.30;;;;;;;8.14;93.06;153450.75;5079064;28;20451;-77
2022/02/08 14:49:51;;;;;;;3.63;1.37;;;;;;;8.17;91.23;153458.50;5060420;28;20430;-78
2022/02/08 15:07:12;;;;;;;1.27;1.03;;;;;;;8.08;91.03;153433.94;5033158;28;20459;-78
2022/02/08 15:09:53;;;;;;;2.10;1.27;;;;;;;8.04;92.69;153424.91;5048554;28;20771;-78
2022/02/08 15:12:30;;;;;;;1.63;1.13;;;;;;;8.00;92.95;153414.53;5064657;28;20928;-77
2022/02/08 15:15:17;;;;;;;1.97;0.57;;;;;;;8.07;92.12;153432.66;5063049;28;20431;-77
2022/02/08 15:17:52;;;;;;;2.60;0.83;;;;;;;8.03;92.76;153422.31;5078009;28;20459;-77
2022/02/08 15:20:28;;;;;;;2.10;0.70;;;;;;;8.02;93.56;153419.75;5063689;28;20449;-77
2022/02/08 15:23:04;;;;;;;1.63;1.00;;;;;;;8.02;92.08;153419.75;5029752;28;20448;-77
2022/02/08 15:25:40;;;;;;;1.53;0.70;;;;;;;8.04;92.60;153423.63;5063970;28;20487;-77
2022/02/08 15:28:16;;;;;;;2.30;1.10;;;;;;;8.04;92.89;153423.63;5078124;28;20783;-77
2022/02/08 15:30:54;;;;;;;3.73;1.50;;;;;;;8.00;93.57;153414.53;5073036;28;20443;-77
2022/02/08 15:33:29;;;;;;;2.07;0.70;;;;;;;7.94;94.96;153399.09;5047472;28;20447;-77
2022/02/08 15:36:05;;;;;;;3.13;1.03;;;;;;;7.87;94.40;153382.25;5042517;28;20824;-77
2022/02/08 15:38:47;;;;;;;1.87;0.87;;;;;;;7.81;95.29;153366.75;5073562;28;20813;-77
2022/02/08 15:41:23;;;;;;;1.30;0.97;;;;;;;7.82;92.83;153368.03;5046228;28;20446;-77
2022/02/08 15:43:58;;;;;;;4.93;0.87;;;;;;;7.85;94.14;153375.81;5042325;28;20454;-77
2022/02/08 15:46:35;;;;;;;1.47;0.73;;;;;;;7.82;92.50;153368.03;5063334;28;21203;-77
2022/02/08 15:49:12;;;;;;;2.00;1.23;;;;;;;7.78;96.85;153357.72;5074633;28;20439;-77
2022/02/08 15:51:54;;;;;;;2.10;0.73;;;;;;;7.78;93.40;153357.72;5075995;28;20454;-77
2022/02/08 15:54:38;;;;;;;1.57;0.87;;;;;;;7.79;95.57;153361.59;5077606;28;20443;-77
2022/02/08 15:58:00;;;;;;;1.23;0.83;;;;;;;7.75;95.22;153351.28;5063710;28;20454;-77
2022/02/08 16:01:01;;;;;;;2.00;0.80;;;;;;;7.70;97.84;153338.38;5059054;28;20448;-77
2022/02/08 16:09:28;;;;;;;3.30;1.20;;;;;;;7.69;96.74;153334.47;5023454;28;20432;-77
2022/02/08 16:12:26;;;;;;;9.47;1.83;;;;;;;7.69;96.36;153334.47;5027223;28;21265;-77
2022/02/08 16:18:04;;;;;;;1.20;0.80;;;;;;;7.60;96.33;153311.25;5046345;28;20547;-78
2022/02/08 16:23:58;;;;;;;3.27;0.83;;;;;;;7.64;95.23;153321.56;5047509;28;20432;-77
2022/02/08 16:26:47;;;;;;;1.50;0.67;;;;;;;7.69;95.43;153334.47;5058974;28;20455;-77
2022/02/08 16:30:06;;;;;;;1.87;1.07;;;;;;;7.64;95.55;153321.56;5075118;28;20447;-77
2022/02/08 16:48:19;;;;;;;2.67;1.20;;;;;;;7.43;98.04;153268.59;5046739;28;20441;-77
2022/02/08 16:53:24;;;;;;;3.07;1.57;;;;;;;7.36;100.00;153251.78;5060314;28;20443;-77
2022/02/08 16:56:13;;;;;;;1.70;0.83;;;;;;;7.40;100.00;153259.53;5032044;28;20451;-77
2022/02/08 16:58:52;;;;;;;1.93;1.20;;;;;;;7.36;99.99;153251.78;5071095;28;20491;-77
2022/02/08 17:01:29;;;;;;;3.60;1.20;;;;;;;7.39;99.91;153257.00;5031358;28;20451;-76